sensor_id;sensor_type;location;lat;lon;timestamp;P1;durP1;ratioP1;P2;durP2;ratioP2
53036;SDS011;38924;52.134;4.666;2024-01-30T00:01:45;25.25;;;14.50;;
53036;SDS011;38924;52.134;4.666;2024-01-30T00:04:11;24.30;;;14.32;;
53036;SDS011;38924;52.134;4.666;2024-01-30T00:06:36;24.92;;;14.88;;
53036;SDS011;38924;52.134;4.666;2024-01-30T00:09:02;21.45;;;14.32;;
53036;SDS011;38924;52.134;4.666;2024-01-30T00:11:27;28.25;;;15.60;;
53036;SDS011;38924;52.134;4.666;2024-01-30T00:13:54;23.90;;;14.45;;
53036;SDS011;38924;52.134;4.666;2024-01-30T00:16:22;24.42;;;15.30;;
53036;SDS011;38924;52.134;4.666;2024-01-30T00:18:50;26.67;;;15.63;;
53036;SDS011;38924;52.134;4.666;2024-01-30T00:21:15;24.90;;;15.20;;
53036;SDS011;38924;52.134;4.666;2024-01-30T00:23:41;23.13;;;15.18;;
53036;SDS011;38924;52.134;4.666;2024-01-30T00:26:07;24.35;;;15.05;;
53036;SDS011;38924;52.134;4.666;2024-01-30T00:28:32;20.58;;;14.23;;
53036;SDS011;38924;52.134;4.666;2024-01-30T00:30:58;25.08;;;14.80;;
53036;SDS011;38924;52.134;4.666;2024-01-30T00:33:23;22.88;;;15.95;;
53036;SDS011;38924;52.134;4.666;2024-01-30T00:35:49;30.02;;;14.68;;
53036;SDS011;38924;52.134;4.666;2024-01-30T00:38:15;21.70;;;14.63;;
53036;SDS011;38924;52.134;4.666;2024-01-30T00:40:40;30.55;;;16.13;;
53036;SDS011;38924;52.134;4.666;2024-01-30T00:43:09;23.67;;;14.85;;
53036;SDS011;38924;52.134;4.666;2024-01-30T00:45:37;28.00;;;14.60;;
53036;SDS011;38924;52.134;4.666;2024-01-30T00:48:03;22.13;;;14.85;;
53036;SDS011;38924;52.134;4.666;2024-01-30T00:50:28;22.73;;;14.40;;
53036;SDS011;38924;52.134;4.666;2024-01-30T00:52:54;23.15;;;15.52;;
53036;SDS011;38924;52.134;4.666;2024-01-30T00:55:20;26.98;;;15.60;;
53036;SDS011;38924;52.134;4.666;2024-01-30T00:57:45;26.17;;;15.85;;
53036;SDS011;38924;52.134;4.666;2024-01-30T01:00:11;22.88;;;15.13;;
53036;SDS011;38924;52.134;4.666;2024-01-30T01:02:38;23.98;;;13.50;;
53036;SDS011;38924;52.134;4.666;2024-01-30T01:05:04;20.40;;;14.48;;
53036;SDS011;38924;52.134;4.666;2024-01-30T01:07:30;21.15;;;14.07;;
53036;SDS011;38924;52.134;4.666;2024-01-30T01:09:56;21.15;;;14.90;;
53036;SDS011;38924;52.134;4.666;2024-01-30T01:12:22;20.85;;;13.77;;
53036;SDS011;38924;52.134;4.666;2024-01-30T01:14:47;22.30;;;14.25;;
53036;SDS011;38924;52.134;4.666;2024-01-30T01:17:13;27.00;;;13.90;;
53036;SDS011;38924;52.134;4.666;2024-01-30T01:19:38;24.98;;;14.48;;
53036;SDS011;38924;52.134;4.666;2024-01-30T01:22:04;33.45;;;15.88;;
53036;SDS011;38924;52.134;4.666;2024-01-30T01:24:31;25.00;;;13.98;;
53036;SDS011;38924;52.134;4.666;2024-01-30T01:26:58;23.35;;;14.52;;
53036;SDS011;38924;52.134;4.666;2024-01-30T01:29:23;24.88;;;14.63;;
53036;SDS011;38924;52.134;4.666;2024-01-30T01:31:56;21.05;;;14.35;;
53036;SDS011;38924;52.134;4.666;2024-01-30T01:34:22;18.80;;;14.20;;
53036;SDS011;38924;52.134;4.666;2024-01-30T01:36:49;25.55;;;15.02;;
53036;SDS011;38924;52.134;4.666;2024-01-30T01:39:15;23.33;;;14.13;;
53036;SDS011;38924;52.134;4.666;2024-01-30T01:41:41;24.08;;;14.27;;
53036;SDS011;38924;52.134;4.666;2024-01-30T01:44:07;20.95;;;13.60;;
53036;SDS011;38924;52.134;4.666;2024-01-30T01:46:33;20.90;;;13.93;;
53036;SDS011;38924;52.134;4.666;2024-01-30T01:49:03;24.15;;;13.82;;
53036;SDS011;38924;52.134;4.666;2024-01-30T01:51:30;27.70;;;14.90;;
53036;SDS011;38924;52.134;4.666;2024-01-30T01:53:56;23.70;;;15.00;;
53036;SDS011;38924;52.134;4.666;2024-01-30T01:56:22;23.33;;;13.02;;
53036;SDS011;38924;52.134;4.666;2024-01-30T01:58:49;22.92;;;15.30;;
53036;SDS011;38924;52.134;4.666;2024-01-30T02:01:16;19.85;;;14.35;;
53036;SDS011;38924;52.134;4.666;2024-01-30T02:03:41;22.85;;;13.65;;
53036;SDS011;38924;52.134;4.666;2024-01-30T02:06:07;25.42;;;14.05;;
53036;SDS011;38924;52.134;4.666;2024-01-30T02:08:33;19.38;;;13.55;;
53036;SDS011;38924;52.134;4.666;2024-01-30T02:10:59;22.15;;;13.50;;
53036;SDS011;38924;52.134;4.666;2024-01-30T02:13:25;19.95;;;12.77;;
53036;SDS011;38924;52.134;4.666;2024-01-30T02:15:51;23.42;;;13.13;;
53036;SDS011;38924;52.134;4.666;2024-01-30T02:18:17;23.65;;;14.07;;
53036;SDS011;38924;52.134;4.666;2024-01-30T02:20:42;20.80;;;13.10;;
53036;SDS011;38924;52.134;4.666;2024-01-30T02:23:09;23.27;;;12.90;;
53036;SDS011;38924;52.134;4.666;2024-01-30T02:25:38;21.38;;;13.15;;
53036;SDS011;38924;52.134;4.666;2024-01-30T02:28:04;22.25;;;13.93;;
53036;SDS011;38924;52.134;4.666;2024-01-30T02:30:29;19.25;;;12.77;;
53036;SDS011;38924;52.134;4.666;2024-01-30T02:32:55;26.20;;;13.68;;
53036;SDS011;38924;52.134;4.666;2024-01-30T02:35:21;18.70;;;13.25;;
53036;SDS011;38924;52.134;4.666;2024-01-30T02:37:46;22.27;;;13.00;;
53036;SDS011;38924;52.134;4.666;2024-01-30T02:40:12;21.42;;;13.38;;
53036;SDS011;38924;52.134;4.666;2024-01-30T02:42:38;23.65;;;13.57;;
53036;SDS011;38924;52.134;4.666;2024-01-30T02:45:04;18.08;;;12.25;;
53036;SDS011;38924;52.134;4.666;2024-01-30T02:47:30;20.48;;;11.85;;
53036;SDS011;38924;52.134;4.666;2024-01-30T02:49:55;20.90;;;13.38;;
53036;SDS011;38924;52.134;4.666;2024-01-30T02:52:21;20.42;;;12.45;;
53036;SDS011;38924;52.134;4.666;2024-01-30T02:54:47;21.92;;;13.98;;
53036;SDS011;38924;52.134;4.666;2024-01-30T02:57:12;21.48;;;12.32;;
53036;SDS011;38924;52.134;4.666;2024-01-30T02:59:38;20.45;;;12.68;;
53036;SDS011;38924;52.134;4.666;2024-01-30T03:02:04;23.83;;;13.40;;
53036;SDS011;38924;52.134;4.666;2024-01-30T03:04:29;24.23;;;13.40;;
53036;SDS011;38924;52.134;4.666;2024-01-30T03:06:55;25.77;;;14.68;;
53036;SDS011;38924;52.134;4.666;2024-01-30T03:09:21;25.08;;;15.05;;
53036;SDS011;38924;52.134;4.666;2024-01-30T03:11:46;15.45;;;11.50;;
53036;SDS011;38924;52.134;4.666;2024-01-30T03:14:12;20.02;;;12.50;;
53036;SDS011;38924;52.134;4.666;2024-01-30T03:16:38;19.35;;;12.50;;
53036;SDS011;38924;52.134;4.666;2024-01-30T03:19:05;20.55;;;13.00;;
53036;SDS011;38924;52.134;4.666;2024-01-30T03:21:31;23.38;;;12.98;;
53036;SDS011;38924;52.134;4.666;2024-01-30T03:23:57;20.13;;;11.68;;
53036;SDS011;38924;52.134;4.666;2024-01-30T03:26:22;20.00;;;12.82;;
53036;SDS011;38924;52.134;4.666;2024-01-30T03:28:48;21.27;;;13.27;;
53036;SDS011;38924;52.134;4.666;2024-01-30T03:31:15;21.42;;;12.27;;
53036;SDS011;38924;52.134;4.666;2024-01-30T03:33:41;17.90;;;12.82;;
53036;SDS011;38924;52.134;4.666;2024-01-30T03:36:07;21.27;;;13.27;;
53036;SDS011;38924;52.134;4.666;2024-01-30T03:38:33;17.92;;;11.95;;
53036;SDS011;38924;52.134;4.666;2024-01-30T03:40:59;23.33;;;13.63;;
53036;SDS011;38924;52.134;4.666;2024-01-30T03:43:25;20.80;;;13.40;;
53036;SDS011;38924;52.134;4.666;2024-01-30T03:45:51;19.45;;;11.93;;
53036;SDS011;38924;52.134;4.666;2024-01-30T03:48:16;22.98;;;12.73;;
53036;SDS011;38924;52.134;4.666;2024-01-30T03:50:42;23.60;;;14.85;;
53036;SDS011;38924;52.134;4.666;2024-01-30T03:53:08;28.23;;;14.27;;
53036;SDS011;38924;52.134;4.666;2024-01-30T03:55:33;23.85;;;14.30;;
53036;SDS011;38924;52.134;4.666;2024-01-30T03:57:59;16.83;;;11.70;;
53036;SDS011;38924;52.134;4.666;2024-01-30T04:00:24;20.15;;;12.90;;
53036;SDS011;38924;52.134;4.666;2024-01-30T04:02:50;20.80;;;13.48;;
53036;SDS011;38924;52.134;4.666;2024-01-30T04:05:16;16.90;;;12.02;;
53036;SDS011;38924;52.134;4.666;2024-01-30T04:07:42;20.90;;;12.57;;
53036;SDS011;38924;52.134;4.666;2024-01-30T04:10:09;19.95;;;12.13;;
53036;SDS011;38924;52.134;4.666;2024-01-30T04:12:40;19.02;;;12.48;;
53036;SDS011;38924;52.134;4.666;2024-01-30T04:15:06;22.08;;;12.25;;
53036;SDS011;38924;52.134;4.666;2024-01-30T04:17:32;20.42;;;12.77;;
53036;SDS011;38924;52.134;4.666;2024-01-30T04:19:58;23.67;;;12.75;;
53036;SDS011;38924;52.134;4.666;2024-01-30T04:22:23;20.55;;;12.85;;
53036;SDS011;38924;52.134;4.666;2024-01-30T04:24:49;18.10;;;12.02;;
53036;SDS011;38924;52.134;4.666;2024-01-30T04:27:15;18.38;;;12.57;;
53036;SDS011;38924;52.134;4.666;2024-01-30T04:29:40;16.48;;;11.65;;
53036;SDS011;38924;52.134;4.666;2024-01-30T04:32:06;19.98;;;11.40;;
53036;SDS011;38924;52.134;4.666;2024-01-30T04:34:38;22.45;;;12.60;;
53036;SDS011;38924;52.134;4.666;2024-01-30T04:37:03;18.77;;;12.63;;
53036;SDS011;38924;52.134;4.666;2024-01-30T04:39:29;18.95;;;12.27;;
53036;SDS011;38924;52.134;4.666;2024-01-30T04:41:54;20.13;;;12.70;;
53036;SDS011;38924;52.134;4.666;2024-01-30T04:44:20;19.13;;;12.57;;
53036;SDS011;38924;52.134;4.666;2024-01-30T04:46:46;17.77;;;11.55;;
53036;SDS011;38924;52.134;4.666;2024-01-30T04:49:12;16.38;;;11.48;;
53036;SDS011;38924;52.134;4.666;2024-01-30T04:51:37;27.65;;;12.68;;
53036;SDS011;38924;52.134;4.666;2024-01-30T04:54:03;19.50;;;11.95;;
53036;SDS011;38924;52.134;4.666;2024-01-30T04:56:29;20.50;;;11.70;;
53036;SDS011;38924;52.134;4.666;2024-01-30T04:58:54;21.45;;;11.40;;
53036;SDS011;38924;52.134;4.666;2024-01-30T05:01:20;21.05;;;12.55;;
53036;SDS011;38924;52.134;4.666;2024-01-30T05:03:46;22.33;;;12.32;;
53036;SDS011;38924;52.134;4.666;2024-01-30T05:06:11;22.30;;;13.32;;
53036;SDS011;38924;52.134;4.666;2024-01-30T05:08:37;17.58;;;12.25;;
53036;SDS011;38924;52.134;4.666;2024-01-30T05:11:05;17.50;;;11.25;;
53036;SDS011;38924;52.134;4.666;2024-01-30T05:13:30;20.63;;;13.10;;
53036;SDS011;38924;52.134;4.666;2024-01-30T05:15:56;18.73;;;11.88;;
53036;SDS011;38924;52.134;4.666;2024-01-30T05:18:22;18.70;;;11.35;;
53036;SDS011;38924;52.134;4.666;2024-01-30T05:20:50;15.48;;;11.18;;
53036;SDS011;38924;52.134;4.666;2024-01-30T05:23:16;18.95;;;12.18;;
53036;SDS011;38924;52.134;4.666;2024-01-30T05:25:42;17.50;;;12.23;;
53036;SDS011;38924;52.134;4.666;2024-01-30T05:28:07;17.05;;;12.02;;
53036;SDS011;38924;52.134;4.666;2024-01-30T05:30:33;19.15;;;12.25;;
53036;SDS011;38924;52.134;4.666;2024-01-30T05:32:59;20.23;;;12.15;;
53036;SDS011;38924;52.134;4.666;2024-01-30T05:35:24;22.48;;;11.98;;
53036;SDS011;38924;52.134;4.666;2024-01-30T05:37:50;20.90;;;13.05;;
53036;SDS011;38924;52.134;4.666;2024-01-30T05:40:16;22.77;;;12.95;;
53036;SDS011;38924;52.134;4.666;2024-01-30T05:42:42;18.27;;;11.20;;
53036;SDS011;38924;52.134;4.666;2024-01-30T05:45:08;18.10;;;10.85;;
53036;SDS011;38924;52.134;4.666;2024-01-30T05:47:34;26.00;;;12.07;;
53036;SDS011;38924;52.134;4.666;2024-01-30T05:50:00;18.58;;;12.05;;
53036;SDS011;38924;52.134;4.666;2024-01-30T05:52:25;19.65;;;11.55;;
53036;SDS011;38924;52.134;4.666;2024-01-30T05:54:51;19.35;;;11.75;;
53036;SDS011;38924;52.134;4.666;2024-01-30T05:57:17;18.02;;;11.00;;
53036;SDS011;38924;52.134;4.666;2024-01-30T05:59:43;25.08;;;10.93;;
53036;SDS011;38924;52.134;4.666;2024-01-30T06:02:12;26.55;;;11.88;;
53036;SDS011;38924;52.134;4.666;2024-01-30T06:04:38;19.02;;;11.10;;
53036;SDS011;38924;52.134;4.666;2024-01-30T06:07:03;20.23;;;10.82;;
53036;SDS011;38924;52.134;4.666;2024-01-30T06:09:31;17.08;;;10.60;;
53036;SDS011;38924;52.134;4.666;2024-01-30T06:11:57;17.25;;;11.13;;
53036;SDS011;38924;52.134;4.666;2024-01-30T06:14:23;21.75;;;11.27;;
53036;SDS011;38924;52.134;4.666;2024-01-30T06:16:49;16.58;;;11.65;;
53036;SDS011;38924;52.134;4.666;2024-01-30T06:19:15;17.25;;;11.60;;
53036;SDS011;38924;52.134;4.666;2024-01-30T06:21:40;19.15;;;11.88;;
53036;SDS011;38924;52.134;4.666;2024-01-30T06:24:06;19.63;;;12.40;;
53036;SDS011;38924;52.134;4.666;2024-01-30T06:26:32;19.48;;;11.65;;
53036;SDS011;38924;52.134;4.666;2024-01-30T06:28:58;18.83;;;11.63;;
53036;SDS011;38924;52.134;4.666;2024-01-30T06:31:23;18.85;;;12.52;;
53036;SDS011;38924;52.134;4.666;2024-01-30T06:33:49;25.20;;;12.10;;
53036;SDS011;38924;52.134;4.666;2024-01-30T06:36:15;18.83;;;11.90;;
53036;SDS011;38924;52.134;4.666;2024-01-30T06:38:43;14.35;;;10.35;;
53036;SDS011;38924;52.134;4.666;2024-01-30T06:41:09;16.65;;;10.90;;
53036;SDS011;38924;52.134;4.666;2024-01-30T06:43:38;19.92;;;11.40;;
53036;SDS011;38924;52.134;4.666;2024-01-30T06:46:03;16.77;;;10.50;;
53036;SDS011;38924;52.134;4.666;2024-01-30T06:48:29;20.17;;;10.07;;
53036;SDS011;38924;52.134;4.666;2024-01-30T06:50:55;20.98;;;10.95;;
53036;SDS011;38924;52.134;4.666;2024-01-30T06:53:20;21.25;;;9.73;;
53036;SDS011;38924;52.134;4.666;2024-01-30T06:55:46;21.80;;;10.98;;
53036;SDS011;38924;52.134;4.666;2024-01-30T06:58:12;19.45;;;10.50;;
53036;SDS011;38924;52.134;4.666;2024-01-30T07:00:37;18.73;;;9.85;;
53036;SDS011;38924;52.134;4.666;2024-01-30T07:03:03;21.08;;;10.15;;
53036;SDS011;38924;52.134;4.666;2024-01-30T07:05:29;14.63;;;9.48;;
53036;SDS011;38924;52.134;4.666;2024-01-30T07:07:55;15.57;;;9.93;;
53036;SDS011;38924;52.134;4.666;2024-01-30T07:10:21;19.88;;;10.63;;
53036;SDS011;38924;52.134;4.666;2024-01-30T07:12:46;17.15;;;9.80;;
53036;SDS011;38924;52.134;4.666;2024-01-30T07:15:12;16.30;;;9.65;;
53036;SDS011;38924;52.134;4.666;2024-01-30T07:17:42;18.20;;;9.75;;
53036;SDS011;38924;52.134;4.666;2024-01-30T07:20:07;15.98;;;9.75;;
53036;SDS011;38924;52.134;4.666;2024-01-30T07:22:34;22.65;;;9.77;;
53036;SDS011;38924;52.134;4.666;2024-01-30T07:25:00;15.75;;;9.73;;
53036;SDS011;38924;52.134;4.666;2024-01-30T07:27:26;15.05;;;9.10;;
53036;SDS011;38924;52.134;4.666;2024-01-30T07:29:52;20.25;;;10.13;;
53036;SDS011;38924;52.134;4.666;2024-01-30T07:32:17;16.30;;;9.20;;
53036;SDS011;38924;52.134;4.666;2024-01-30T07:34:44;18.05;;;9.23;;
53036;SDS011;38924;52.134;4.666;2024-01-30T07:37:09;24.17;;;10.43;;
53036;SDS011;38924;52.134;4.666;2024-01-30T07:39:36;17.65;;;8.30;;
53036;SDS011;38924;52.134;4.666;2024-01-30T07:42:03;19.63;;;9.50;;
53036;SDS011;38924;52.134;4.666;2024-01-30T07:44:29;18.17;;;10.00;;
53036;SDS011;38924;52.134;4.666;2024-01-30T07:46:54;20.50;;;9.35;;
53036;SDS011;38924;52.134;4.666;2024-01-30T07:49:20;20.73;;;9.65;;
53036;SDS011;38924;52.134;4.666;2024-01-30T07:51:46;22.40;;;9.63;;
53036;SDS011;38924;52.134;4.666;2024-01-30T07:54:11;19.25;;;9.23;;
53036;SDS011;38924;52.134;4.666;2024-01-30T07:56:40;14.57;;;9.07;;
53036;SDS011;38924;52.134;4.666;2024-01-30T07:59:12;16.50;;;8.65;;
53036;SDS011;38924;52.134;4.666;2024-01-30T08:04:06;24.02;;;9.00;;
53036;SDS011;38924;52.134;4.666;2024-01-30T08:06:32;28.65;;;9.88;;
53036;SDS011;38924;52.134;4.666;2024-01-30T08:08:58;17.45;;;9.43;;
53036;SDS011;38924;52.134;4.666;2024-01-30T08:11:24;20.70;;;8.35;;
53036;SDS011;38924;52.134;4.666;2024-01-30T08:13:52;21.42;;;8.82;;
53036;SDS011;38924;52.134;4.666;2024-01-30T08:16:18;21.08;;;9.75;;
53036;SDS011;38924;52.134;4.666;2024-01-30T08:18:46;19.83;;;9.25;;
53036;SDS011;38924;52.134;4.666;2024-01-30T08:21:12;16.23;;;9.35;;
53036;SDS011;38924;52.134;4.666;2024-01-30T08:23:40;17.33;;;9.23;;
53036;SDS011;38924;52.134;4.666;2024-01-30T08:26:06;19.42;;;9.45;;
53036;SDS011;38924;52.134;4.666;2024-01-30T08:28:32;20.58;;;8.35;;
53036;SDS011;38924;52.134;4.666;2024-01-30T08:30:58;21.55;;;9.32;;
53036;SDS011;38924;52.134;4.666;2024-01-30T08:33:27;14.02;;;9.07;;
53036;SDS011;38924;52.134;4.666;2024-01-30T08:35:55;17.98;;;8.95;;
53036;SDS011;38924;52.134;4.666;2024-01-30T08:38:21;20.50;;;9.68;;
53036;SDS011;38924;52.134;4.666;2024-01-30T08:40:47;17.38;;;9.15;;
53036;SDS011;38924;52.134;4.666;2024-01-30T08:43:15;23.27;;;10.02;;
53036;SDS011;38924;52.134;4.666;2024-01-30T08:45:41;15.27;;;9.30;;
53036;SDS011;38924;52.134;4.666;2024-01-30T08:48:07;17.23;;;9.68;;
53036;SDS011;38924;52.134;4.666;2024-01-30T08:50:36;20.15;;;10.65;;
53036;SDS011;38924;52.134;4.666;2024-01-30T08:53:02;21.55;;;10.60;;
53036;SDS011;38924;52.134;4.666;2024-01-30T08:55:28;21.63;;;9.57;;
53036;SDS011;38924;52.134;4.666;2024-01-30T08:57:53;24.30;;;9.70;;
53036;SDS011;38924;52.134;4.666;2024-01-30T09:00:19;19.17;;;10.38;;
53036;SDS011;38924;52.134;4.666;2024-01-30T09:02:45;21.63;;;9.80;;
53036;SDS011;38924;52.134;4.666;2024-01-30T09:05:10;19.83;;;10.00;;
53036;SDS011;38924;52.134;4.666;2024-01-30T09:07:37;21.63;;;10.43;;
53036;SDS011;38924;52.134;4.666;2024-01-30T09:10:06;24.27;;;9.65;;
53036;SDS011;38924;52.134;4.666;2024-01-30T09:12:32;20.33;;;10.32;;
53036;SDS011;38924;52.134;4.666;2024-01-30T09:14:57;20.52;;;10.90;;
53036;SDS011;38924;52.134;4.666;2024-01-30T09:17:23;23.85;;;10.32;;
53036;SDS011;38924;52.134;4.666;2024-01-30T09:19:49;21.58;;;9.75;;
53036;SDS011;38924;52.134;4.666;2024-01-30T09:22:14;15.30;;;10.05;;
53036;SDS011;38924;52.134;4.666;2024-01-30T09:24:40;22.35;;;9.57;;
53036;SDS011;38924;52.134;4.666;2024-01-30T09:27:06;18.15;;;8.20;;
53036;SDS011;38924;52.134;4.666;2024-01-30T09:29:31;21.13;;;7.35;;
53036;SDS011;38924;52.134;4.666;2024-01-30T09:32:02;18.05;;;7.22;;
53036;SDS011;38924;52.134;4.666;2024-01-30T09:34:29;14.05;;;6.00;;
53036;SDS011;38924;52.134;4.666;2024-01-30T09:36:54;8.82;;;5.25;;
53036;SDS011;38924;52.134;4.666;2024-01-30T09:39:20;14.15;;;5.47;;
53036;SDS011;38924;52.134;4.666;2024-01-30T09:41:55;18.58;;;5.60;;
53036;SDS011;38924;52.134;4.666;2024-01-30T09:44:24;14.73;;;6.30;;
53036;SDS011;38924;52.134;4.666;2024-01-30T09:46:50;13.52;;;6.03;;
53036;SDS011;38924;52.134;4.666;2024-01-30T09:49:16;19.45;;;5.50;;
53036;SDS011;38924;52.134;4.666;2024-01-30T09:51:44;16.60;;;5.93;;
53036;SDS011;38924;52.134;4.666;2024-01-30T09:54:10;17.90;;;6.57;;
53036;SDS011;38924;52.134;4.666;2024-01-30T09:56:36;14.63;;;5.63;;
53036;SDS011;38924;52.134;4.666;2024-01-30T09:59:01;18.10;;;5.05;;
53036;SDS011;38924;52.134;4.666;2024-01-30T10:01:29;19.80;;;3.45;;
53036;SDS011;38924;52.134;4.666;2024-01-30T10:03:56;16.85;;;2.50;;
53036;SDS011;38924;52.134;4.666;2024-01-30T10:06:22;16.58;;;2.83;;
53036;SDS011;38924;52.134;4.666;2024-01-30T10:08:50;18.95;;;2.80;;
53036;SDS011;38924;52.134;4.666;2024-01-30T10:11:15;12.82;;;3.33;;
53036;SDS011;38924;52.134;4.666;2024-01-30T10:13:41;14.93;;;3.25;;
53036;SDS011;38924;52.134;4.666;2024-01-30T10:16:07;15.15;;;2.55;;
53036;SDS011;38924;52.134;4.666;2024-01-30T10:18:32;21.90;;;3.35;;
53036;SDS011;38924;52.134;4.666;2024-01-30T10:20:58;15.23;;;3.17;;
53036;SDS011;38924;52.134;4.666;2024-01-30T10:23:24;17.75;;;3.33;;
53036;SDS011;38924;52.134;4.666;2024-01-30T10:25:51;11.48;;;2.80;;
53036;SDS011;38924;52.134;4.666;2024-01-30T10:28:17;10.60;;;1.63;;
53036;SDS011;38924;52.134;4.666;2024-01-30T10:30:42;8.98;;;1.88;;
53036;SDS011;38924;52.134;4.666;2024-01-30T10:33:08;10.38;;;2.60;;
53036;SDS011;38924;52.134;4.666;2024-01-30T10:35:34;9.10;;;1.65;;
53036;SDS011;38924;52.134;4.666;2024-01-30T10:38:00;8.35;;;1.85;;
53036;SDS011;38924;52.134;4.666;2024-01-30T10:40:27;8.52;;;1.80;;
53036;SDS011;38924;52.134;4.666;2024-01-30T10:42:56;5.13;;;1.40;;
53036;SDS011;38924;52.134;4.666;2024-01-30T10:45:22;9.05;;;1.15;;
53036;SDS011;38924;52.134;4.666;2024-01-30T10:47:53;11.00;;;2.05;;
53036;SDS011;38924;52.134;4.666;2024-01-30T10:50:19;8.40;;;1.98;;
53036;SDS011;38924;52.134;4.666;2024-01-30T10:52:45;10.80;;;1.77;;
53036;SDS011;38924;52.134;4.666;2024-01-30T10:55:12;6.85;;;1.52;;
53036;SDS011;38924;52.134;4.666;2024-01-30T10:57:38;9.25;;;1.90;;
53036;SDS011;38924;52.134;4.666;2024-01-30T11:00:08;10.07;;;1.77;;
53036;SDS011;38924;52.134;4.666;2024-01-30T11:02:38;4.18;;;1.17;;
53036;SDS011;38924;52.134;4.666;2024-01-30T11:05:05;6.82;;;1.30;;
53036;SDS011;38924;52.134;4.666;2024-01-30T11:07:31;4.60;;;1.08;;
53036;SDS011;38924;52.134;4.666;2024-01-30T11:10:01;8.27;;;1.52;;
53036;SDS011;38924;52.134;4.666;2024-01-30T11:12:27;7.38;;;1.38;;
53036;SDS011;38924;52.134;4.666;2024-01-30T11:15:03;12.32;;;1.33;;
53036;SDS011;38924;52.134;4.666;2024-01-30T11:17:39;8.80;;;1.10;;
53036;SDS011;38924;52.134;4.666;2024-01-30T11:20:09;9.55;;;2.25;;
53036;SDS011;38924;52.134;4.666;2024-01-30T11:22:37;9.95;;;1.95;;
53036;SDS011;38924;52.134;4.666;2024-01-30T11:25:06;12.20;;;1.70;;
53036;SDS011;38924;52.134;4.666;2024-01-30T11:27:36;15.57;;;2.03;;
53036;SDS011;38924;52.134;4.666;2024-01-30T11:30:02;12.88;;;2.35;;
53036;SDS011;38924;52.134;4.666;2024-01-30T11:32:28;19.33;;;2.97;;
53036;SDS011;38924;52.134;4.666;2024-01-30T11:34:56;14.05;;;1.67;;
53036;SDS011;38924;52.134;4.666;2024-01-30T11:37:24;14.10;;;2.25;;
53036;SDS011;38924;52.134;4.666;2024-01-30T11:39:50;10.23;;;1.50;;
53036;SDS011;38924;52.134;4.666;2024-01-30T11:42:16;8.13;;;1.23;;
53036;SDS011;38924;52.134;4.666;2024-01-30T11:44:46;13.68;;;2.55;;
53036;SDS011;38924;52.134;4.666;2024-01-30T11:47:11;9.20;;;1.73;;
53036;SDS011;38924;52.134;4.666;2024-01-30T11:49:37;14.43;;;1.95;;
53036;SDS011;38924;52.134;4.666;2024-01-30T11:52:03;12.20;;;1.77;;
53036;SDS011;38924;52.134;4.666;2024-01-30T11:54:29;9.00;;;1.23;;
53036;SDS011;38924;52.134;4.666;2024-01-30T11:56:57;10.85;;;2.65;;
53036;SDS011;38924;52.134;4.666;2024-01-30T11:59:25;13.43;;;2.35;;
53036;SDS011;38924;52.134;4.666;2024-01-30T12:01:51;9.23;;;1.65;;
53036;SDS011;38924;52.134;4.666;2024-01-30T12:04:17;9.65;;;2.75;;
53036;SDS011;38924;52.134;4.666;2024-01-30T12:06:43;7.15;;;1.45;;
53036;SDS011;38924;52.134;4.666;2024-01-30T12:09:09;14.88;;;2.08;;
53036;SDS011;38924;52.134;4.666;2024-01-30T12:11:45;13.85;;;2.03;;
53036;SDS011;38924;52.134;4.666;2024-01-30T12:14:11;19.70;;;3.22;;
53036;SDS011;38924;52.134;4.666;2024-01-30T12:16:37;12.25;;;2.70;;
53036;SDS011;38924;52.134;4.666;2024-01-30T12:19:02;12.55;;;1.88;;
53036;SDS011;38924;52.134;4.666;2024-01-30T12:21:28;11.82;;;2.10;;
53036;SDS011;38924;52.134;4.666;2024-01-30T12:23:54;21.38;;;3.40;;
53036;SDS011;38924;52.134;4.666;2024-01-30T12:26:23;17.08;;;2.53;;
53036;SDS011;38924;52.134;4.666;2024-01-30T12:28:49;12.90;;;2.45;;
53036;SDS011;38924;52.134;4.666;2024-01-30T12:31:15;12.55;;;1.85;;
53036;SDS011;38924;52.134;4.666;2024-01-30T12:33:41;11.20;;;2.28;;
53036;SDS011;38924;52.134;4.666;2024-01-30T12:36:07;15.30;;;2.65;;
53036;SDS011;38924;52.134;4.666;2024-01-30T12:38:33;13.90;;;2.67;;
53036;SDS011;38924;52.134;4.666;2024-01-30T12:40:58;12.07;;;2.38;;
53036;SDS011;38924;52.134;4.666;2024-01-30T12:43:24;9.93;;;2.38;;
53036;SDS011;38924;52.134;4.666;2024-01-30T12:45:50;10.38;;;1.90;;
53036;SDS011;38924;52.134;4.666;2024-01-30T12:48:20;21.02;;;2.65;;
53036;SDS011;38924;52.134;4.666;2024-01-30T12:50:46;12.75;;;2.95;;
53036;SDS011;38924;52.134;4.666;2024-01-30T12:53:11;11.15;;;2.47;;
53036;SDS011;38924;52.134;4.666;2024-01-30T12:55:38;14.85;;;2.38;;
53036;SDS011;38924;52.134;4.666;2024-01-30T12:58:04;20.65;;;3.45;;
53036;SDS011;38924;52.134;4.666;2024-01-30T13:00:29;13.80;;;2.60;;
53036;SDS011;38924;52.134;4.666;2024-01-30T13:02:55;13.55;;;2.92;;
53036;SDS011;38924;52.134;4.666;2024-01-30T13:05:21;23.25;;;3.17;;
53036;SDS011;38924;52.134;4.666;2024-01-30T13:07:46;14.02;;;2.60;;
53036;SDS011;38924;52.134;4.666;2024-01-30T13:10:12;16.13;;;2.90;;
53036;SDS011;38924;52.134;4.666;2024-01-30T13:12:38;11.77;;;2.65;;
53036;SDS011;38924;52.134;4.666;2024-01-30T13:15:06;11.82;;;3.75;;
53036;SDS011;38924;52.134;4.666;2024-01-30T13:17:32;15.32;;;3.78;;
53036;SDS011;38924;52.134;4.666;2024-01-30T13:19:58;14.77;;;2.78;;
53036;SDS011;38924;52.134;4.666;2024-01-30T13:22:24;8.75;;;2.90;;
53036;SDS011;38924;52.134;4.666;2024-01-30T13:24:49;10.23;;;3.20;;
53036;SDS011;38924;52.134;4.666;2024-01-30T13:27:15;19.77;;;2.92;;
53036;SDS011;38924;52.134;4.666;2024-01-30T13:29:41;12.00;;;2.97;;
53036;SDS011;38924;52.134;4.666;2024-01-30T13:32:06;7.78;;;2.33;;
53036;SDS011;38924;52.134;4.666;2024-01-30T13:34:32;8.40;;;1.98;;
53036;SDS011;38924;52.134;4.666;2024-01-30T13:36:58;7.88;;;2.00;;
53036;SDS011;38924;52.134;4.666;2024-01-30T13:39:24;9.88;;;1.98;;
53036;SDS011;38924;52.134;4.666;2024-01-30T13:41:49;8.80;;;2.15;;
53036;SDS011;38924;52.134;4.666;2024-01-30T13:44:15;12.10;;;2.08;;
53036;SDS011;38924;52.134;4.666;2024-01-30T13:46:42;5.65;;;1.75;;
53036;SDS011;38924;52.134;4.666;2024-01-30T13:49:08;5.88;;;2.38;;
53036;SDS011;38924;52.134;4.666;2024-01-30T13:51:34;5.28;;;2.53;;
53036;SDS011;38924;52.134;4.666;2024-01-30T13:54:01;7.97;;;4.15;;
53036;SDS011;38924;52.134;4.666;2024-01-30T13:56:26;6.93;;;4.03;;
53036;SDS011;38924;52.134;4.666;2024-01-30T13:58:52;7.82;;;3.53;;
53036;SDS011;38924;52.134;4.666;2024-01-30T14:01:18;11.05;;;4.93;;
53036;SDS011;38924;52.134;4.666;2024-01-30T14:03:44;9.35;;;4.63;;
53036;SDS011;38924;52.134;4.666;2024-01-30T14:06:11;12.60;;;4.75;;
53036;SDS011;38924;52.134;4.666;2024-01-30T14:08:36;19.25;;;6.20;;
53036;SDS011;38924;52.134;4.666;2024-01-30T14:11:02;16.25;;;6.90;;
53036;SDS011;38924;52.134;4.666;2024-01-30T14:13:28;18.30;;;7.78;;
53036;SDS011;38924;52.134;4.666;2024-01-30T14:15:55;20.88;;;7.85;;
53036;SDS011;38924;52.134;4.666;2024-01-30T14:18:21;15.13;;;7.50;;
53036;SDS011;38924;52.134;4.666;2024-01-30T14:20:49;14.13;;;7.13;;
53036;SDS011;38924;52.134;4.666;2024-01-30T14:23:16;16.65;;;7.30;;
53036;SDS011;38924;52.134;4.666;2024-01-30T14:25:42;11.60;;;6.13;;